createdAt,value
2023-05-03T00:01:36.583Z,0.00
2023-05-03T00:02:36.657Z,0.00
2023-05-03T00:04:40.696Z,0.00
2023-05-03T00:05:40.804Z,0.00
2023-05-03T00:07:44.757Z,0.00
2023-05-03T00:08:44.768Z,0.00
2023-05-03T00:10:48.806Z,0.00
2023-05-03T00:11:48.836Z,0.00
2023-05-03T00:13:52.896Z,0.00
2023-05-03T00:14:52.905Z,0.00
2023-05-03T00:16:57.085Z,0.00
2023-05-03T00:17:57.076Z,0.00
2023-05-03T00:20:02.070Z,0.00
2023-05-03T00:21:01.248Z,0.00
2023-05-03T00:23:05.287Z,0.00
2023-05-03T00:24:05.312Z,0.00
2023-05-03T00:26:09.937Z,0.00
2023-05-03T00:27:09.381Z,0.00
2023-05-03T00:29:13.423Z,0.00
2023-05-03T00:30:13.468Z,0.00
2023-05-03T00:32:06.432Z,0.00
2023-05-03T00:33:06.479Z,0.00
2023-05-03T00:35:10.468Z,0.00
2023-05-03T00:36:10.524Z,0.00
2023-05-03T00:38:14.535Z,0.00
2023-05-03T00:39:14.556Z,0.00
2023-05-03T00:41:18.591Z,0.00
2023-05-03T00:42:18.616Z,0.00
2023-05-03T00:44:22.796Z,0.00
2023-05-03T00:45:22.832Z,0.00
2023-05-03T00:47:26.888Z,0.00
2023-05-03T00:48:26.898Z,0.00
2023-05-03T00:50:30.916Z,0.00
2023-05-03T00:51:30.940Z,0.00
2023-05-03T00:53:34.981Z,0.00
2023-05-03T00:54:35.013Z,0.00
2023-05-03T00:56:50.534Z,0.00
2023-05-03T00:57:39.068Z,0.00
2023-05-03T00:59:43.098Z,0.00
2023-05-03T01:00:43.126Z,0.00
2023-05-03T01:02:36.197Z,0.00
2023-05-03T01:03:36.189Z,0.00
2023-05-03T01:05:40.143Z,0.00
2023-05-03T01:06:40.193Z,0.00
2023-05-03T01:08:44.240Z,0.00
2023-05-03T01:09:44.231Z,0.00
2023-05-03T01:11:48.268Z,0.00
2023-05-03T01:12:48.307Z,0.00
2023-05-03T01:14:52.332Z,0.00
2023-05-03T01:15:52.399Z,0.00
2023-05-03T01:17:56.446Z,0.00
2023-05-03T01:18:56.433Z,0.00
2023-05-03T01:21:00.461Z,0.00
2023-05-03T01:22:00.502Z,0.00
2023-05-03T01:24:04.557Z,0.00
2023-05-03T01:25:04.547Z,0.00
2023-05-03T01:27:08.708Z,0.00
2023-05-03T01:28:08.609Z,0.00
2023-05-03T01:30:12.647Z,0.00
2023-05-03T01:31:12.682Z,0.00
2023-05-03T01:33:16.695Z,0.00
2023-05-03T01:34:16.727Z,0.00
2023-05-03T01:36:20.792Z,0.00
2023-05-03T01:37:20.793Z,0.00
2023-05-03T01:39:24.825Z,0.00
2023-05-03T01:40:24.837Z,0.00
2023-05-03T01:42:17.828Z,0.00
2023-05-03T01:43:17.821Z,0.00
2023-05-03T01:45:21.879Z,0.00
2023-05-03T01:46:22.088Z,0.00
2023-05-03T01:48:25.920Z,0.00
2023-05-03T01:49:25.940Z,0.00
2023-05-03T01:51:29.974Z,0.00
2023-05-03T01:52:29.998Z,0.00
2023-05-03T01:54:34.031Z,0.00
2023-05-03T01:55:34.055Z,0.00
2023-05-03T01:57:38.086Z,0.00
2023-05-03T01:58:38.113Z,0.00
2023-05-03T02:00:42.231Z,0.00
2023-05-03T02:01:42.241Z,0.00
2023-05-03T02:03:46.213Z,0.00
2023-05-03T02:04:46.327Z,0.00
2023-05-03T02:06:50.272Z,0.00
2023-05-03T02:07:50.300Z,0.00
2023-05-03T02:09:54.321Z,0.00
2023-05-03T02:10:54.346Z,0.00
2023-05-03T02:12:58.387Z,0.00
2023-05-03T02:13:58.419Z,0.00
2023-05-03T02:16:02.449Z,0.00
2023-05-03T02:17:02.517Z,0.00
2023-05-03T02:19:06.508Z,0.00
2023-05-03T02:20:06.546Z,0.00
2023-05-03T02:21:59.519Z,0.00
2023-05-03T02:22:59.518Z,0.00
2023-05-03T02:25:03.566Z,0.00
2023-05-03T02:26:03.579Z,0.00
2023-05-03T02:28:07.607Z,0.00
2023-05-03T02:29:07.626Z,0.00
2023-05-03T02:31:11.678Z,0.00
2023-05-03T02:32:11.760Z,0.00
2023-05-03T02:34:15.712Z,0.00
2023-05-03T02:35:15.740Z,0.00
2023-05-03T02:37:19.805Z,0.00
2023-05-03T02:38:19.815Z,0.00
2023-05-03T02:40:23.829Z,0.00
2023-05-03T02:41:23.862Z,0.00
2023-05-03T02:43:27.891Z,0.00
2023-05-03T02:44:27.910Z,0.00
2023-05-03T02:46:31.995Z,0.00
2023-05-03T02:47:31.989Z,0.00
2023-05-03T02:49:36.004Z,0.00
2023-05-03T02:50:36.026Z,0.00
2023-05-03T02:52:28.972Z,0.00
2023-05-03T02:53:29.046Z,0.00
2023-05-03T02:55:33.048Z,0.00
2023-05-03T02:56:33.078Z,0.00
2023-05-03T02:58:37.104Z,0.00
2023-05-03T02:59:37.132Z,0.00
2023-05-03T03:01:41.170Z,0.00
2023-05-03T03:02:41.248Z,0.00
2023-05-03T03:04:45.260Z,0.00
2023-05-03T03:05:45.247Z,0.00
2023-05-03T03:07:49.329Z,0.00
2023-05-03T03:08:49.314Z,0.00
2023-05-03T03:10:53.348Z,4.00
2023-05-03T03:11:53.399Z,0.00
2023-05-03T03:13:58.000Z,4.00
2023-05-03T03:14:57.628Z,0.00
2023-05-03T03:17:01.657Z,4.00
2023-05-03T03:18:01.720Z,0.00
2023-05-03T03:19:55.344Z,4.00
2023-05-03T03:20:55.339Z,4.00
2023-05-03T03:22:48.945Z,8.00
2023-05-03T03:23:48.664Z,8.00
2023-05-03T03:25:52.707Z,8.00
2023-05-03T03:26:52.718Z,12.00
2023-05-03T03:28:45.835Z,12.00
2023-05-03T03:29:46.112Z,12.00
2023-05-03T03:30:45.877Z,16.00
2023-05-03T03:31:45.956Z,16.00
2023-05-03T03:32:45.956Z,20.00
2023-05-03T03:33:45.965Z,20.00
2023-05-03T03:34:46.013Z,20.00
2023-05-03T03:35:46.045Z,24.00
2023-05-03T03:36:46.061Z,28.00
2023-05-03T03:37:46.082Z,32.00
2023-05-03T03:38:46.119Z,32.00
2023-05-03T03:39:46.177Z,36.00
2023-05-03T03:40:46.210Z,36.00
2023-05-03T03:41:46.206Z,40.00
2023-05-03T03:42:46.220Z,44.00
2023-05-03T03:43:46.257Z,44.00
2023-05-03T03:44:46.275Z,52.00
2023-05-03T03:45:46.317Z,52.00
2023-05-03T03:46:46.367Z,56.00
2023-05-03T03:47:46.400Z,60.00
2023-05-03T03:48:46.406Z,64.00
2023-05-03T03:49:46.435Z,64.00
2023-05-03T03:50:46.467Z,72.00
2023-05-03T03:51:46.491Z,76.00
2023-05-03T03:52:46.516Z,80.00
2023-05-03T03:53:46.553Z,84.00
2023-05-03T03:54:46.585Z,88.00
2023-05-03T03:55:46.604Z,92.00
2023-05-03T03:56:46.639Z,96.00
2023-05-03T03:57:46.659Z,100.00
2023-05-03T03:58:46.688Z,104.00
2023-05-03T03:59:46.757Z,108.00
2023-05-03T04:00:46.750Z,116.00
2023-05-03T04:01:46.792Z,116.00
2023-05-03T04:02:47.469Z,124.00
2023-05-03T04:03:46.930Z,124.00
2023-05-03T04:04:46.859Z,132.00
2023-05-03T04:05:46.901Z,132.00
2023-05-03T04:06:47.037Z,140.00
2023-05-03T04:07:46.960Z,144.00
2023-05-03T04:08:46.998Z,144.00
2023-05-03T04:09:47.018Z,152.00
2023-05-03T04:10:47.027Z,156.00
2023-05-03T04:11:47.053Z,160.00
2023-05-03T04:12:47.095Z,164.00
2023-05-03T04:13:47.124Z,172.00
2023-05-03T04:14:47.164Z,172.00
2023-05-03T04:15:47.180Z,176.00
2023-05-03T04:16:47.283Z,184.00
2023-05-03T04:17:47.298Z,184.00
2023-05-03T04:18:47.272Z,188.00
2023-05-03T04:19:47.299Z,192.00
2023-05-03T04:20:47.324Z,196.00
2023-05-03T04:21:47.349Z,200.00
2023-05-03T04:22:47.382Z,204.00
2023-05-03T04:23:47.412Z,208.00
2023-05-03T04:24:47.460Z,212.00
2023-05-03T04:25:47.459Z,212.00
2023-05-03T04:26:47.484Z,220.00
2023-05-03T04:27:47.532Z,224.00
2023-05-03T04:28:47.543Z,224.00
2023-05-03T04:29:47.578Z,228.00
2023-05-03T04:30:47.693Z,232.00
2023-05-03T04:31:47.643Z,236.00
2023-05-03T04:32:47.755Z,240.00
2023-05-03T04:33:47.705Z,248.00
2023-05-03T04:34:49.340Z,248.00
2023-05-03T04:35:47.750Z,248.00
2023-05-03T04:36:47.788Z,256.00
2023-05-03T04:37:47.817Z,256.00
2023-05-03T04:38:47.873Z,260.00
2023-05-03T04:39:47.883Z,260.00
2023-05-03T04:40:47.902Z,268.00
2023-05-03T04:41:47.929Z,268.00
2023-05-03T04:42:47.962Z,276.00
2023-05-03T04:43:47.980Z,276.00
2023-05-03T04:44:48.018Z,280.00
2023-05-03T04:45:48.269Z,284.00
2023-05-03T04:46:49.514Z,284.00
2023-05-03T04:47:48.116Z,288.00
2023-05-03T04:48:48.127Z,292.00
2023-05-03T04:49:48.154Z,292.00
2023-05-03T04:50:48.190Z,296.00
2023-05-03T04:51:48.209Z,300.00
2023-05-03T04:52:48.257Z,300.00
2023-05-03T04:53:48.293Z,300.00
2023-05-03T04:54:48.304Z,304.00
2023-05-03T04:55:48.336Z,308.00
2023-05-03T04:56:48.359Z,312.00
2023-05-03T04:57:48.369Z,312.00
2023-05-03T04:58:48.442Z,316.00
2023-05-03T04:59:48.426Z,316.00
2023-05-03T05:00:48.464Z,324.00
2023-05-03T05:01:48.555Z,324.00
2023-05-03T05:02:48.595Z,324.00
2023-05-03T05:03:48.731Z,328.00
2023-05-03T05:04:48.576Z,332.00
2023-05-03T05:05:48.614Z,332.00
2023-05-03T05:06:48.729Z,336.00
2023-05-03T05:07:48.672Z,336.00
2023-05-03T05:08:48.694Z,340.00
2023-05-03T05:09:48.723Z,340.00
2023-05-03T05:10:48.757Z,344.00
2023-05-03T05:11:48.788Z,348.00
2023-05-03T05:12:48.805Z,348.00
2023-05-03T05:13:48.844Z,352.00
2023-05-03T05:14:48.856Z,352.00
2023-05-03T05:15:48.895Z,360.00
2023-05-03T05:16:49.002Z,356.00
2023-05-03T05:17:49.143Z,360.00
2023-05-03T05:18:48.990Z,360.00
2023-05-03T05:19:49.003Z,364.00
2023-05-03T05:20:49.060Z,364.00
2023-05-03T05:21:49.080Z,364.00
2023-05-03T05:22:49.087Z,372.00
2023-05-03T05:23:49.129Z,372.00
2023-05-03T05:24:49.158Z,372.00
2023-05-03T05:25:49.182Z,376.00
2023-05-03T05:26:49.222Z,376.00
2023-05-03T05:27:49.248Z,376.00
2023-05-03T05:28:49.271Z,376.00
2023-05-03T05:29:49.298Z,380.00
2023-05-03T05:30:49.330Z,380.00
2023-05-03T05:31:49.388Z,380.00
2023-05-03T05:32:49.404Z,384.00
2023-05-03T05:33:49.526Z,388.00
2023-05-03T05:34:49.437Z,388.00
2023-05-03T05:35:49.472Z,388.00
2023-05-03T05:36:49.500Z,388.00
2023-05-03T05:37:49.532Z,388.00
2023-05-03T05:38:49.573Z,392.00
2023-05-03T05:39:49.593Z,392.00
2023-05-03T05:40:49.626Z,392.00
2023-05-03T05:41:49.674Z,396.00
2023-05-03T05:42:49.674Z,396.00
2023-05-03T05:43:49.691Z,396.00
2023-05-03T05:44:49.735Z,404.00
2023-05-03T05:45:49.762Z,404.00
2023-05-03T05:46:49.879Z,404.00
2023-05-03T05:47:49.844Z,404.00
2023-05-03T05:48:49.851Z,404.00
2023-05-03T05:49:49.888Z,412.00
2023-05-03T05:50:49.902Z,412.00
2023-05-03T05:51:49.956Z,412.00
2023-05-03T05:52:49.981Z,412.00
2023-05-03T05:53:50.006Z,412.00
2023-05-03T05:54:50.038Z,412.00
2023-05-03T05:55:50.086Z,416.00
2023-05-03T05:56:50.095Z,416.00
2023-05-03T05:57:50.125Z,420.00
2023-05-03T05:58:50.148Z,420.00
2023-05-03T05:59:50.176Z,424.00
2023-05-03T06:00:50.215Z,420.00
2023-05-03T06:01:50.253Z,424.00
2023-05-03T06:02:50.331Z,424.00
2023-05-03T06:03:50.286Z,428.00
2023-05-03T06:04:50.374Z,428.00
2023-05-03T06:05:50.353Z,428.00
2023-05-03T06:06:50.458Z,428.00
2023-05-03T06:07:50.425Z,432.00
2023-05-03T06:08:50.447Z,428.00
2023-05-03T06:09:50.473Z,432.00
2023-05-03T06:10:50.511Z,432.00
2023-05-03T06:11:50.532Z,432.00
2023-05-03T06:12:50.555Z,432.00
2023-05-03T06:13:50.588Z,436.00
2023-05-03T06:15:01.943Z,440.00
2023-05-03T06:15:50.652Z,436.00
2023-05-03T06:16:50.861Z,440.00
2023-05-03T06:17:50.775Z,440.00
2023-05-03T06:18:50.738Z,444.00
2023-05-03T06:19:50.755Z,448.00
2023-05-03T06:20:50.803Z,444.00
2023-05-03T06:21:50.831Z,444.00
2023-05-03T06:22:50.859Z,448.00
2023-05-03T06:23:50.884Z,448.00
2023-05-03T06:24:50.918Z,448.00
2023-05-03T06:25:50.951Z,452.00
2023-05-03T06:26:50.972Z,452.00
2023-05-03T06:27:51.017Z,452.00
2023-05-03T06:28:51.035Z,456.00
2023-05-03T06:29:51.066Z,456.00
2023-05-03T06:30:51.121Z,456.00
2023-05-03T06:31:51.108Z,460.00
2023-05-03T06:32:51.301Z,460.00
2023-05-03T06:33:51.168Z,464.00
2023-05-03T06:34:51.265Z,468.00
2023-05-03T06:35:51.269Z,464.00
2023-05-03T06:36:51.266Z,468.00
2023-05-03T06:37:51.319Z,472.00
2023-05-03T06:38:51.339Z,472.00
2023-05-03T06:39:51.352Z,472.00
2023-05-03T06:40:51.384Z,472.00
2023-05-03T06:41:51.421Z,472.00
2023-05-03T06:42:51.456Z,476.00
2023-05-03T06:43:51.486Z,476.00
2023-05-03T06:44:51.514Z,484.00
2023-05-03T06:45:51.538Z,484.00
2023-05-03T06:46:51.596Z,488.00
2023-05-03T06:47:51.605Z,488.00
2023-05-03T06:48:51.662Z,492.00
2023-05-03T06:49:51.679Z,496.00
2023-05-03T06:50:51.687Z,496.00
2023-05-03T06:51:51.718Z,496.00
2023-05-03T06:52:51.753Z,504.00
2023-05-03T06:53:51.775Z,504.00
2023-05-03T06:54:51.794Z,508.00
2023-05-03T06:55:51.842Z,508.00
2023-05-03T06:56:51.877Z,516.00
2023-05-03T06:57:51.901Z,516.00
2023-05-03T06:58:51.925Z,520.00
2023-05-03T06:59:51.962Z,524.00
2023-05-03T07:00:51.996Z,524.00
2023-05-03T07:01:52.045Z,524.00
2023-05-03T07:02:52.146Z,528.00
2023-05-03T07:03:52.260Z,532.00
2023-05-03T07:04:52.103Z,536.00
2023-05-03T07:05:52.141Z,544.00
2023-05-03T07:06:56.322Z,544.00
2023-05-03T07:07:52.209Z,548.00
2023-05-03T07:08:52.228Z,556.00
2023-05-03T07:09:52.355Z,556.00
2023-05-03T07:10:52.299Z,564.00
2023-05-03T07:11:52.321Z,568.00
2023-05-03T07:12:52.353Z,576.00
2023-05-03T07:13:52.391Z,580.00
2023-05-03T07:14:52.418Z,588.00
2023-05-03T07:15:52.532Z,596.00
2023-05-03T07:16:52.480Z,596.00
2023-05-03T07:17:52.559Z,604.00
2023-05-03T07:18:52.565Z,608.00
2023-05-03T07:19:52.591Z,620.00
2023-05-03T07:20:52.579Z,624.00
2023-05-03T07:21:52.637Z,636.00
2023-05-03T07:22:52.657Z,644.00
2023-05-03T07:23:52.703Z,656.00
2023-05-03T07:24:52.773Z,660.00
2023-05-03T07:25:52.757Z,672.00
2023-05-03T07:26:52.768Z,676.00
2023-05-03T07:27:52.812Z,688.00
2023-05-03T07:28:52.841Z,700.00
2023-05-03T07:29:52.871Z,712.00
2023-05-03T07:30:52.891Z,720.00
2023-05-03T07:31:53.731Z,736.00
2023-05-03T07:32:52.987Z,748.00
2023-05-03T07:33:53.068Z,760.00
2023-05-03T07:34:53.018Z,772.00
2023-05-03T07:35:53.061Z,784.00
2023-05-03T07:36:53.092Z,800.00
2023-05-03T07:37:53.116Z,820.00
2023-05-03T07:38:53.143Z,824.00
2023-05-03T07:39:53.168Z,836.00
2023-05-03T07:40:53.320Z,844.00
2023-05-03T07:41:53.268Z,856.00
2023-05-03T07:42:53.275Z,868.00
2023-05-03T07:43:53.298Z,876.00
2023-05-03T07:44:53.339Z,888.00
2023-05-03T07:45:53.474Z,900.00
2023-05-03T07:46:53.398Z,916.00
2023-05-03T07:47:53.462Z,916.00
2023-05-03T07:48:53.464Z,916.00
2023-05-03T07:49:53.494Z,932.00
2023-05-03T07:50:53.521Z,936.00
2023-05-03T07:51:53.558Z,952.00
2023-05-03T07:52:53.586Z,968.00
2023-05-03T07:53:53.608Z,976.00
2023-05-03T07:54:53.674Z,984.00
2023-05-03T07:55:53.688Z,996.00
2023-05-03T07:56:55.598Z,1008.00
2023-05-03T07:57:53.747Z,1016.00
2023-05-03T07:59:00.885Z,1024.00
2023-05-03T07:59:53.793Z,1032.00
2023-05-03T08:00:53.825Z,1048.00
2023-05-03T08:01:53.953Z,1056.00
2023-05-03T08:02:54.043Z,1068.00
2023-05-03T08:03:54.139Z,1072.00
2023-05-03T08:04:54.008Z,1076.00
2023-05-03T08:05:53.982Z,1076.00
2023-05-03T08:06:54.107Z,1072.00
2023-05-03T08:07:54.055Z,836.00
2023-05-03T08:08:54.060Z,832.00
2023-05-03T08:09:54.122Z,852.00
2023-05-03T08:10:54.169Z,1088.00
2023-05-03T08:11:54.179Z,1128.00
2023-05-03T08:12:54.206Z,1140.00
2023-05-03T08:13:54.246Z,1144.00
2023-05-03T08:14:54.284Z,1152.00
2023-05-03T08:15:54.348Z,1156.00
2023-05-03T08:16:54.343Z,1160.00
2023-05-03T08:17:54.470Z,1176.00
2023-05-03T08:18:54.406Z,1180.00
2023-05-03T08:19:54.442Z,1176.00
2023-05-03T08:20:54.473Z,1184.00
2023-05-03T08:21:54.509Z,1188.00
2023-05-03T08:22:54.539Z,1196.00
2023-05-03T08:23:54.581Z,1204.00
2023-05-03T08:24:54.602Z,1216.00
2023-05-03T08:25:54.627Z,1224.00
2023-05-03T08:26:54.659Z,1228.00
2023-05-03T08:27:54.703Z,1240.00
2023-05-03T08:28:55.709Z,1248.00
2023-05-03T08:29:54.797Z,1256.00
2023-05-03T08:30:54.814Z,1268.00
2023-05-03T08:31:54.877Z,1276.00
2023-05-03T08:32:54.925Z,1292.00
2023-05-03T08:33:54.885Z,1304.00
2023-05-03T08:34:54.932Z,1060.00
2023-05-03T08:35:54.975Z,944.00
2023-05-03T08:36:54.998Z,1000.00
2023-05-03T08:37:55.027Z,1192.00
2023-05-03T08:38:55.076Z,1312.00
2023-05-03T08:39:55.079Z,1328.00
2023-05-03T08:40:55.145Z,1328.00
2023-05-03T08:41:55.195Z,1340.00
2023-05-03T08:42:55.197Z,1332.00
2023-05-03T08:43:55.220Z,1032.00
2023-05-03T08:44:55.258Z,1032.00
2023-05-03T08:45:55.401Z,1364.00
2023-05-03T08:46:55.386Z,1380.00
2023-05-03T08:47:55.432Z,1380.00
2023-05-03T08:48:55.380Z,1380.00
2023-05-03T08:49:55.421Z,1376.00
2023-05-03T08:50:55.453Z,1376.00
2023-05-03T08:51:55.482Z,1380.00
2023-05-03T08:52:55.510Z,1396.00
2023-05-03T08:53:55.548Z,1388.00
2023-05-03T08:54:55.565Z,1396.00
2023-05-03T08:55:55.612Z,1404.00
2023-05-03T08:56:55.646Z,1404.00
2023-05-03T08:57:55.686Z,1400.00
2023-05-03T08:58:55.710Z,1420.00
2023-05-03T08:59:55.749Z,1420.00
2023-05-03T09:00:55.764Z,1424.00
2023-05-03T09:01:55.831Z,1436.00
2023-05-03T09:02:55.967Z,1448.00
2023-05-03T09:03:56.042Z,1452.00
2023-05-03T09:04:55.892Z,1452.00
2023-05-03T09:05:55.932Z,1456.00
2023-05-03T09:06:56.037Z,1460.00
2023-05-03T09:07:56.027Z,1468.00
2023-05-03T09:08:56.043Z,1472.00
2023-05-03T09:09:56.058Z,1476.00
2023-05-03T09:10:56.101Z,1476.00
2023-05-03T09:11:56.141Z,1484.00
2023-05-03T09:12:56.156Z,1492.00
2023-05-03T09:13:56.192Z,1504.00
2023-05-03T09:14:56.238Z,1504.00
2023-05-03T09:15:56.416Z,1508.00
2023-05-03T09:16:56.402Z,1508.00
2023-05-03T09:17:56.409Z,1504.00
2023-05-03T09:18:56.373Z,1508.00
2023-05-03T09:19:56.406Z,1512.00
2023-05-03T09:20:58.026Z,1508.00
2023-05-03T09:21:56.457Z,1516.00
2023-05-03T09:22:56.507Z,1520.00
2023-05-03T09:23:56.551Z,1524.00
2023-05-03T09:24:56.577Z,1524.00
2023-05-03T09:25:56.599Z,1524.00
2023-05-03T09:26:56.644Z,1528.00
2023-05-03T09:27:56.668Z,1540.00
2023-05-03T09:28:56.744Z,1320.00
2023-05-03T09:29:56.747Z,1436.00
2023-05-03T09:30:56.777Z,1544.00
2023-05-03T09:31:56.858Z,1548.00
2023-05-03T09:32:56.878Z,1540.00
2023-05-03T09:33:56.983Z,1536.00
2023-05-03T09:34:56.909Z,1544.00
2023-05-03T09:35:56.959Z,1544.00
2023-05-03T09:36:56.991Z,1544.00
2023-05-03T09:37:57.011Z,1608.00
2023-05-03T09:38:57.030Z,1600.00
2023-05-03T09:39:57.065Z,1588.00
2023-05-03T09:40:57.111Z,1588.00
2023-05-03T09:41:57.158Z,1592.00
2023-05-03T09:42:57.178Z,1596.00
2023-05-03T09:43:57.209Z,1600.00
2023-05-03T09:44:57.251Z,1592.00
2023-05-03T09:45:57.311Z,1592.00
2023-05-03T09:46:57.327Z,1596.00
2023-05-03T09:47:57.360Z,1596.00
2023-05-03T09:48:57.395Z,1616.00
2023-05-03T09:49:57.418Z,1620.00
2023-05-03T09:50:57.459Z,1620.00
2023-05-03T09:51:57.499Z,1612.00
2023-05-03T09:52:57.521Z,1480.00
2023-05-03T09:53:57.548Z,1528.00
2023-05-03T09:54:57.588Z,1344.00
2023-05-03T09:55:57.627Z,1000.00
2023-05-03T09:56:57.668Z,1580.00
2023-05-03T09:57:57.693Z,1636.00
2023-05-03T09:58:57.716Z,1596.00
2023-05-03T09:59:57.786Z,1164.00
2023-05-03T10:00:57.818Z,1336.00
2023-05-03T10:01:57.826Z,1624.00
2023-05-03T10:02:57.948Z,1648.00
2023-05-03T10:03:57.957Z,1660.00
2023-05-03T10:04:57.939Z,1664.00
2023-05-03T10:05:57.966Z,1664.00
2023-05-03T10:06:58.028Z,1656.00
2023-05-03T10:07:58.042Z,1644.00
2023-05-03T10:08:58.075Z,1640.00
2023-05-03T10:09:58.128Z,1656.00
2023-05-03T10:10:58.144Z,1672.00
2023-05-03T10:11:58.175Z,1672.00
2023-05-03T10:12:58.220Z,1668.00
2023-05-03T10:13:58.244Z,1676.00
2023-05-03T10:14:58.281Z,1684.00
2023-05-03T10:15:58.372Z,1708.00
2023-05-03T10:16:58.354Z,1716.00
2023-05-03T10:17:58.396Z,1712.00
2023-05-03T10:18:58.413Z,1700.00
2023-05-03T10:19:58.471Z,1712.00
2023-05-03T10:20:58.490Z,1728.00
2023-05-03T10:21:58.532Z,1712.00
2023-05-03T10:22:58.561Z,1704.00
2023-05-03T10:23:58.608Z,1692.00
2023-05-03T10:24:58.643Z,1696.00
2023-05-03T10:25:58.667Z,1684.00
2023-05-03T10:26:58.703Z,1656.00
2023-05-03T10:27:58.745Z,1660.00
2023-05-03T10:29:01.234Z,1656.00
2023-05-03T10:29:58.817Z,1656.00
2023-05-03T10:30:58.865Z,1660.00
2023-05-03T10:31:58.894Z,1668.00
2023-05-03T10:32:58.947Z,1684.00
2023-05-03T10:33:58.960Z,1700.00
2023-05-03T10:34:58.987Z,1696.00
2023-05-03T10:35:59.017Z,1704.00
2023-05-03T10:36:59.058Z,1692.00
2023-05-03T10:37:59.139Z,1684.00
2023-05-03T10:38:59.109Z,1680.00
2023-05-03T10:39:59.633Z,1692.00
2023-05-03T10:40:59.198Z,1692.00
2023-05-03T10:41:59.222Z,1696.00
2023-05-03T10:42:59.250Z,1704.00
2023-05-03T10:43:59.297Z,1700.00
2023-05-03T10:44:59.340Z,1696.00
2023-05-03T10:45:59.379Z,1684.00
2023-05-03T10:46:59.403Z,1680.00
2023-05-03T10:47:59.461Z,1680.00
2023-05-03T10:48:59.482Z,1684.00
2023-05-03T10:49:59.514Z,1680.00
2023-05-03T10:50:59.533Z,1668.00
2023-05-03T10:51:59.593Z,1664.00
2023-05-03T10:52:59.613Z,1660.00
2023-05-03T10:53:59.648Z,1656.00
2023-05-03T10:54:59.684Z,1660.00
2023-05-03T10:55:59.741Z,1652.00
2023-05-03T10:56:59.864Z,1660.00
2023-05-03T10:57:59.790Z,1664.00
2023-05-03T10:58:59.837Z,1660.00
2023-05-03T10:59:59.875Z,1668.00
2023-05-03T11:00:59.896Z,1652.00
2023-05-03T11:02:00.107Z,1660.00
2023-05-03T11:03:00.013Z,1664.00
2023-05-03T11:04:00.085Z,1588.00
2023-05-03T11:05:00.130Z,1668.00
2023-05-03T11:06:00.085Z,1664.00
2023-05-03T11:07:00.129Z,1660.00
2023-05-03T11:08:00.145Z,1668.00
2023-05-03T11:09:00.207Z,1672.00
2023-05-03T11:10:00.260Z,1656.00
2023-05-03T11:11:00.300Z,1664.00
2023-05-03T11:12:00.294Z,1660.00
2023-05-03T11:13:00.343Z,1640.00
2023-05-03T11:14:00.412Z,1668.00
2023-05-03T11:15:00.525Z,1672.00
2023-05-03T11:16:00.531Z,1676.00
2023-05-03T11:17:00.493Z,1676.00
2023-05-03T11:18:00.538Z,1680.00
2023-05-03T11:19:00.542Z,1692.00
2023-05-03T11:20:00.579Z,1680.00
2023-05-03T11:21:00.624Z,1704.00
2023-05-03T11:22:00.661Z,1664.00
2023-05-03T11:23:00.687Z,1744.00
2023-05-03T11:24:00.726Z,1756.00
2023-05-03T11:25:00.909Z,1748.00
2023-05-03T11:26:00.869Z,1744.00
2023-05-03T11:27:00.837Z,1728.00
2023-05-03T11:28:00.876Z,1724.00
2023-05-03T11:29:00.920Z,1724.00
2023-05-03T11:30:00.943Z,1728.00
2023-05-03T11:31:00.986Z,1720.00
2023-05-03T11:32:01.038Z,1716.00
2023-05-03T11:33:01.122Z,1712.00
2023-05-03T11:34:01.112Z,1716.00
2023-05-03T11:35:01.445Z,1716.00
2023-05-03T11:36:01.162Z,1708.00
2023-05-03T11:37:01.251Z,1720.00
2023-05-03T11:38:01.234Z,1712.00
2023-05-03T11:39:01.257Z,1712.00
2023-05-03T11:40:01.305Z,1688.00
2023-05-03T11:41:01.343Z,1708.00
2023-05-03T11:42:01.387Z,1700.00
2023-05-03T11:43:01.414Z,1684.00
2023-05-03T11:44:15.445Z,1700.00
2023-05-03T11:45:01.586Z,1696.00
2023-05-03T11:46:01.548Z,1696.00
2023-05-03T11:47:01.873Z,1700.00
2023-05-03T11:48:01.653Z,1704.00
2023-05-03T11:49:01.632Z,1696.00
2023-05-03T11:50:01.666Z,1704.00
2023-05-03T11:51:01.710Z,1700.00
2023-05-03T11:52:01.780Z,1704.00
2023-05-03T11:53:01.820Z,1712.00
2023-05-03T11:54:12.901Z,1692.00
2023-05-03T11:55:01.978Z,1692.00
2023-05-03T11:56:01.890Z,1692.00
2023-05-03T11:57:02.005Z,1672.00
2023-05-03T11:58:01.985Z,1688.00
2023-05-03T11:59:02.004Z,1680.00
2023-05-03T12:00:02.052Z,1684.00
2023-05-03T12:01:02.077Z,1676.00
2023-05-03T12:02:02.275Z,1676.00
2023-05-03T12:03:02.367Z,1680.00
2023-05-03T12:04:02.813Z,1680.00
2023-05-03T12:05:02.845Z,1664.00
2023-05-03T12:06:03.349Z,1664.00
2023-05-03T12:07:03.436Z,1668.00
2023-05-03T12:08:02.754Z,1656.00
2023-05-03T12:09:02.627Z,1648.00
2023-05-03T12:10:14.111Z,1644.00
2023-05-03T12:11:03.574Z,1644.00
2023-05-03T12:12:03.374Z,1644.00
2023-05-03T12:13:05.085Z,1640.00
2023-05-03T12:14:02.897Z,1636.00
2023-05-03T12:15:04.173Z,1640.00
2023-05-03T12:16:11.961Z,1640.00
2023-05-03T12:17:02.798Z,1616.00
2023-05-03T12:18:04.452Z,1636.00
2023-05-03T12:19:03.267Z,1660.00
2023-05-03T12:21:29.041Z,1636.00
2023-05-03T12:22:22.506Z,1628.00
2023-05-03T12:23:04.198Z,1624.00
2023-05-03T12:24:05.260Z,1620.00
2023-05-03T12:25:04.451Z,1620.00
2023-05-03T12:26:05.409Z,1620.00
2023-05-03T12:27:03.406Z,1620.00
2023-05-03T12:28:18.586Z,1608.00
2023-05-03T12:29:04.208Z,1608.00
2023-05-03T12:30:03.272Z,1608.00
2023-05-03T12:31:05.122Z,1596.00
2023-05-03T12:32:04.128Z,1596.00
2023-05-03T12:33:04.925Z,1616.00
2023-05-03T12:34:29.302Z,1584.00
2023-05-03T12:35:03.596Z,1580.00
2023-05-03T12:36:04.531Z,1572.00
2023-05-03T12:37:04.624Z,1568.00
2023-05-03T12:38:03.826Z,1564.00
2023-05-03T12:39:03.586Z,1556.00
2023-05-03T12:40:25.382Z,1560.00
2023-05-03T12:41:03.579Z,1548.00
2023-05-03T12:42:07.111Z,1548.00
2023-05-03T12:43:03.690Z,1540.00
2023-05-03T12:44:03.743Z,1532.00
2023-05-03T12:45:04.928Z,1524.00
2023-05-03T12:46:19.592Z,1520.00
2023-05-03T12:47:04.376Z,1516.00
2023-05-03T12:48:03.952Z,1516.00
2023-05-03T12:49:06.557Z,1508.00
2023-05-03T12:50:06.261Z,1500.00
2023-05-03T12:51:18.398Z,1496.00
2023-05-03T12:53:08.441Z,1496.00
2023-05-03T12:54:04.271Z,1484.00
2023-05-03T12:55:04.629Z,1476.00
2023-05-03T12:56:06.651Z,1472.00
2023-05-03T12:57:07.948Z,1468.00
2023-05-03T12:59:33.989Z,1460.00
2023-05-03T13:00:04.710Z,1452.00
2023-05-03T13:01:47.753Z,1444.00
2023-05-03T13:03:13.635Z,1440.00
2023-05-03T13:04:40.393Z,1424.00
2023-05-03T13:06:12.560Z,1424.00
2023-05-03T13:09:04.671Z,1416.00
2023-05-03T13:11:04.705Z,1396.00
2023-05-03T13:12:04.799Z,1384.00
2023-05-03T13:13:04.705Z,1376.00
2023-05-03T13:14:04.742Z,1376.00
2023-05-03T13:15:05.024Z,1372.00
2023-05-03T13:16:04.870Z,1360.00
2023-05-03T13:17:04.859Z,1372.00
2023-05-03T13:18:05.138Z,1352.00
2023-05-03T13:19:04.935Z,1348.00
2023-05-03T13:20:04.967Z,1344.00
2023-05-03T13:21:05.014Z,1344.00
2023-05-03T13:22:05.089Z,1332.00
2023-05-03T13:23:05.075Z,1328.00
2023-05-03T13:24:05.112Z,1320.00
2023-05-03T13:25:05.386Z,1320.00
2023-05-03T13:26:05.193Z,1312.00
2023-05-03T13:27:05.229Z,1308.00
2023-05-03T13:28:05.262Z,1308.00
2023-05-03T13:29:05.307Z,1304.00
2023-05-03T13:30:05.370Z,1300.00
2023-05-03T13:31:05.386Z,1292.00
2023-05-03T13:32:05.452Z,1288.00
2023-05-03T13:33:05.497Z,1276.00
2023-05-03T13:34:05.481Z,1268.00
2023-05-03T13:35:05.835Z,1276.00
2023-05-03T13:36:05.571Z,1256.00
2023-05-03T13:37:05.633Z,1248.00
2023-05-03T13:38:05.632Z,1240.00
2023-05-03T13:39:05.680Z,1244.00
2023-05-03T13:40:05.935Z,1244.00
2023-05-03T13:41:05.777Z,1232.00
2023-05-03T13:42:05.781Z,1232.00
2023-05-03T13:43:05.824Z,1232.00
2023-05-03T13:44:05.848Z,1232.00
2023-05-03T13:45:05.898Z,1216.00
2023-05-03T13:46:05.949Z,1212.00
2023-05-03T13:47:05.960Z,1212.00
2023-05-03T13:48:18.170Z,1204.00